Time;durP1;ratioP1;P1;durP2;ratioP2;P2;SDS_P1;SDS_P2;PMS_P1;PMS_P2;Temp;Humidity;BMP_temperature;BMP_pressure;BME280_temperature;BME280_humidity;BME280_pressure;Samples;Min_cycle;Max_cycle;Signal;HPM_P1;HPM_P2
2022/03/30 00:01:32;;;;;;;34.72;17.15;;;4.60;99.90;;;;;;4997465;28;20042;-72
2022/03/30 00:03:57;;;;;;;33.10;16.55;;;4.50;99.90;;;;;;4997037;28;20082;-74
2022/03/30 00:06:23;;;;;;;33.33;17.40;;;4.50;99.90;;;;;;4996882;28;20434;-73
2022/03/30 00:08:49;;;;;;;34.75;17.00;;;4.50;99.90;;;;;;4997113;28;20065;-73
2022/03/30 00:11:14;;;;;;;33.15;16.58;;;4.50;99.90;;;;;;4997099;28;20169;-75
2022/03/30 00:13:40;;;;;;;36.35;18.17;;;4.50;99.90;;;;;;4979593;28;20090;-73
2022/03/30 00:16:08;;;;;;;34.63;16.92;;;4.50;99.90;;;;;;4979212;28;20042;-73
2022/03/30 00:18:34;;;;;;;34.97;17.90;;;4.50;99.90;;;;;;4996993;28;20054;-74
2022/03/30 00:21:00;;;;;;;36.92;17.40;;;4.50;99.90;;;;;;4996068;28;20109;-75
2022/03/30 00:23:25;;;;;;;34.40;16.38;;;4.40;99.90;;;;;;4996504;28;20125;-76
2022/03/30 00:25:51;;;;;;;32.83;16.73;;;4.40;99.90;;;;;;4996197;28;20093;-73
2022/03/30 00:28:17;;;;;;;31.02;16.13;;;4.40;99.90;;;;;;4996516;28;20045;-73
2022/03/30 00:30:43;;;;;;;38.25;17.55;;;4.40;99.90;;;;;;4996480;28;20104;-73
2022/03/30 00:33:09;;;;;;;43.53;17.58;;;4.30;99.90;;;;;;4996896;28;20061;-72
2022/03/30 00:35:35;;;;;;;36.22;18.30;;;4.30;99.90;;;;;;4996171;28;20054;-74
2022/03/30 00:38:01;;;;;;;36.25;17.67;;;4.20;99.90;;;;;;4996438;28;20089;-73
2022/03/30 00:40:27;;;;;;;38.13;18.77;;;4.20;99.90;;;;;;4996425;28;20426;-74
2022/03/30 00:42:53;;;;;;;40.72;18.98;;;4.20;99.90;;;;;;4979009;28;20112;-72
2022/03/30 00:45:21;;;;;;;36.92;19.23;;;4.20;99.90;;;;;;4978833;28;20050;-72
2022/03/30 00:47:47;;;;;;;38.35;19.23;;;4.10;99.90;;;;;;4996253;28;20047;-75
2022/03/30 00:50:16;;;;;;;42.50;18.88;;;4.10;99.90;;;;;;4995917;28;20057;-73
2022/03/30 00:52:43;;;;;;;40.50;18.83;;;4.10;99.90;;;;;;4996188;28;20058;-73
2022/03/30 00:55:09;;;;;;;42.38;19.40;;;4.10;99.90;;;;;;4996320;28;20458;-72
2022/03/30 00:57:37;;;;;;;38.10;19.73;;;4.10;99.90;;;;;;4994716;28;20053;-76
2022/03/30 01:00:08;;;;;;;43.15;19.88;;;4.10;99.90;;;;;;4961882;28;20442;-74
2022/03/30 01:02:37;;;;;;;42.72;19.58;;;4.20;99.90;;;;;;4996328;28;20042;-73
2022/03/30 01:05:03;;;;;;;34.08;18.77;;;4.30;99.90;;;;;;4995911;28;20053;-72
2022/03/30 01:07:29;;;;;;;39.85;19.27;;;4.30;99.90;;;;;;4996158;28;20042;-74
2022/03/30 01:09:54;;;;;;;41.25;19.85;;;4.30;99.90;;;;;;4978344;28;20057;-76
2022/03/30 01:12:21;;;;;;;36.78;19.25;;;4.40;99.90;;;;;;4996002;28;20086;-74
2022/03/30 01:14:47;;;;;;;39.70;20.92;;;4.40;99.90;;;;;;4995451;28;20461;-73
2022/03/30 01:17:13;;;;;;;36.35;19.52;;;4.40;99.90;;;;;;4995254;28;20050;-76
2022/03/30 01:19:38;;;;;;;41.35;20.00;;;4.40;99.90;;;;;;4978212;28;20145;-75
2022/03/30 01:22:07;;;;;;;33.20;17.27;;;4.50;99.90;;;;;;4995549;28;20117;-75
2022/03/30 01:24:35;;;;;;;35.63;17.38;;;4.60;99.90;;;;;;4995765;28;20121;-74
2022/03/30 01:27:01;;;;;;;42.65;18.17;;;4.60;99.90;;;;;;4995580;28;20042;-74
2022/03/30 01:32:27;;;;;;;36.03;19.25;;;4.70;99.90;;;;;;4978260;28;20080;-74
2022/03/30 01:34:54;;;;;;;37.88;19.02;;;4.70;99.90;;;;;;4995227;28;20058;-74
2022/03/30 01:37:20;;;;;;;37.45;18.17;;;4.80;99.90;;;;;;4995457;28;20116;-75
2022/03/30 01:39:45;;;;;;;36.67;18.90;;;4.90;99.90;;;;;;4978211;28;20458;-73
2022/03/30 01:42:11;;;;;;;43.38;18.58;;;4.80;99.90;;;;;;4995554;28;20092;-72
2022/03/30 01:44:37;;;;;;;37.05;19.42;;;5.10;99.90;;;;;;4995731;28;20038;-73
2022/03/30 01:47:07;;;;;;;35.58;17.92;;;4.90;99.90;;;;;;4995444;28;20046;-73
2022/03/30 01:49:32;;;;;;;41.08;18.23;;;4.90;99.90;;;;;;4994917;28;20089;-72
2022/03/30 01:51:59;;;;;;;37.65;19.00;;;4.90;99.90;;;;;;4993968;28;20085;-74
2022/03/30 01:54:26;;;;;;;34.13;17.75;;;5.20;99.90;;;;;;4977798;28;20538;-73
2022/03/30 01:56:54;;;;;;;41.58;18.70;;;5.00;99.90;;;;;;4974947;28;20101;-75
2022/03/30 01:59:21;;;;;;;35.10;18.42;;;5.00;99.90;;;;;;4942995;28;20103;-74
2022/03/30 02:01:47;;;;;;;33.45;17.08;;;5.10;99.90;;;;;;4958809;28;20043;-74
2022/03/30 02:04:14;;;;;;;37.25;19.15;;;5.10;99.90;;;;;;4991646;28;20117;-73
2022/03/30 02:06:39;;;;;;;43.78;19.60;;;5.10;99.90;;;;;;4975561;28;20534;-73
2022/03/30 02:09:06;;;;;;;36.40;19.70;;;5.10;99.90;;;;;;4976092;28;20059;-73
2022/03/30 02:11:32;;;;;;;33.72;18.80;;;5.10;99.90;;;;;;4958613;28;20047;-72
2022/03/30 02:14:00;;;;;;;35.25;18.15;;;5.20;99.90;;;;;;4975906;28;20066;-74
2022/03/30 02:16:26;;;;;;;37.85;18.23;;;5.20;99.90;;;;;;4975979;28;20054;-76
2022/03/30 02:18:52;;;;;;;41.90;17.67;;;5.20;99.90;;;;;;4975722;28;20043;-75
2022/03/30 02:21:17;;;;;;;42.13;18.55;;;5.20;99.90;;;;;;4993449;28;20042;-74
2022/03/30 02:23:45;;;;;;;34.83;18.02;;;5.20;99.90;;;;;;4998648;28;20042;-74
2022/03/30 02:26:12;;;;;;;36.38;17.52;;;5.20;99.90;;;;;;4981495;28;20046;-72
2022/03/30 02:28:39;;;;;;;36.92;18.25;;;5.20;99.90;;;;;;4998756;28;20042;-73
2022/03/30 02:31:05;;;;;;;34.10;18.58;;;5.20;99.90;;;;;;4981550;28;20505;-76
2022/03/30 02:33:31;;;;;;;40.42;18.65;;;5.30;99.90;;;;;;4997661;28;20050;-73
2022/03/30 02:35:59;;;;;;;41.58;18.15;;;5.20;99.90;;;;;;4998714;28;20191;-75
2022/03/30 02:38:25;;;;;;;38.67;17.92;;;5.20;99.90;;;;;;4998494;28;20112;-74
2022/03/30 02:40:51;;;;;;;46.00;19.42;;;5.20;99.90;;;;;;4997345;28;20050;-74
2022/03/30 02:43:19;;;;;;;34.60;17.25;;;5.30;99.90;;;;;;4998758;28;20043;-74
2022/03/30 02:45:46;;;;;;;39.33;17.90;;;5.30;99.90;;;;;;4998606;28;20042;-75
2022/03/30 02:48:17;;;;;;;39.92;17.20;;;5.40;99.90;;;;;;4998356;28;20046;-74
2022/03/30 02:50:54;;;;;;;42.97;17.67;;;5.40;99.90;;;;;;4984397;28;20057;-74
2022/03/30 02:53:20;;;;;;;40.65;18.20;;;5.40;99.90;;;;;;4950440;28;20363;-73
2022/03/30 02:55:46;;;;;;;34.85;18.13;;;5.50;99.90;;;;;;4998241;28;20034;-74
2022/03/30 02:58:12;;;;;;;35.85;17.88;;;5.40;99.90;;;;;;4997369;28;20049;-72
2022/03/30 03:00:38;;;;;;;37.80;17.05;;;5.40;99.90;;;;;;4980689;28;20046;-75
2022/03/30 03:03:04;;;;;;;32.78;17.65;;;5.50;99.90;;;;;;4998121;28;20117;-74
2022/03/30 03:05:33;;;;;;;35.97;16.77;;;5.50;99.90;;;;;;4998138;28;20502;-72
2022/03/30 03:08:02;;;;;;;35.83;16.90;;;5.50;99.90;;;;;;4980625;28;20046;-74
2022/03/30 03:10:29;;;;;;;35.08;17.52;;;5.50;99.90;;;;;;4980626;28;20046;-74
2022/03/30 03:12:55;;;;;;;34.75;15.82;;;5.50;99.90;;;;;;4980841;28;20370;-75
2022/03/30 03:15:22;;;;;;;33.72;17.17;;;5.50;99.90;;;;;;4997450;28;20144;-74
2022/03/30 03:17:48;;;;;;;31.58;16.40;;;5.60;99.90;;;;;;4980725;28;20046;-73
2022/03/30 03:20:13;;;;;;;33.55;15.70;;;5.60;99.90;;;;;;4997478;28;20061;-74
2022/03/30 03:22:39;;;;;;;34.25;16.52;;;5.60;99.90;;;;;;4997231;28;20124;-72
2022/03/30 03:25:05;;;;;;;37.45;16.38;;;5.60;99.90;;;;;;4997840;28;20358;-74
2022/03/30 03:27:31;;;;;;;34.63;16.83;;;5.60;99.90;;;;;;4997829;28;20096;-73
2022/03/30 03:29:57;;;;;;;35.85;16.48;;;5.50;99.90;;;;;;4980356;28;20041;-74
2022/03/30 03:32:22;;;;;;;27.23;15.50;;;5.50;99.90;;;;;;4997956;28;20046;-72
2022/03/30 03:34:48;;;;;;;35.63;17.33;;;5.50;99.90;;;;;;4996061;28;20062;-74
2022/03/30 03:37:15;;;;;;;37.80;16.70;;;5.60;99.90;;;;;;4980555;28;20069;-72
2022/03/30 03:39:41;;;;;;;31.88;16.23;;;5.60;99.90;;;;;;4997699;28;20039;-75
2022/03/30 03:42:07;;;;;;;32.78;16.00;;;5.60;99.90;;;;;;4997515;28;20089;-74
2022/03/30 03:44:33;;;;;;;37.42;15.20;;;5.60;99.90;;;;;;4997085;28;20074;-74
2022/03/30 03:46:58;;;;;;;33.05;15.68;;;5.60;99.90;;;;;;4997661;28;20077;-71
2022/03/30 03:49:24;;;;;;;28.77;15.88;;;5.70;99.90;;;;;;4978880;28;20046;-75
2022/03/30 03:51:50;;;;;;;30.30;15.63;;;5.70;99.90;;;;;;4979293;28;20043;-74
2022/03/30 03:54:15;;;;;;;32.63;16.35;;;5.70;99.90;;;;;;4997475;28;20038;-74
2022/03/30 03:56:41;;;;;;;32.88;14.85;;;5.70;99.90;;;;;;4997335;28;20041;-72
2022/03/30 03:59:07;;;;;;;30.27;13.57;;;5.70;99.90;;;;;;4983501;28;20054;-73
2022/03/30 04:01:36;;;;;;;31.50;12.10;;;5.70;99.90;;;;;;4997715;28;20042;-71
2022/03/30 04:04:02;;;;;;;16.92;7.80;;;6.10;99.90;;;;;;4996580;28;20111;-73
2022/03/30 04:06:29;;;;;;;15.55;6.63;;;5.70;99.90;;;;;;4898673;29;20124;-71
2022/03/30 04:08:54;;;;;;;8.77;5.07;;;5.80;99.90;;;;;;4917739;29;20452;-74
2022/03/30 04:11:20;;;;;;;6.57;3.22;;;5.70;99.90;;;;;;4917772;29;20052;-73
2022/03/30 04:13:46;;;;;;;4.57;2.10;;;5.80;99.90;;;;;;4901923;29;20052;-73
2022/03/30 04:16:12;;;;;;;5.30;2.55;;;5.80;99.90;;;;;;4924667;29;20492;-75
2022/03/30 04:18:37;;;;;;;5.03;1.92;;;5.80;99.90;;;;;;4914040;29;20067;-75
2022/03/30 04:21:03;;;;;;;6.90;2.60;;;5.80;99.90;;;;;;4917740;29;20086;-72
2022/03/30 04:23:28;;;;;;;4.22;2.10;;;5.80;99.90;;;;;;4902134;29;20191;-72
2022/03/30 04:25:54;;;;;;;2.97;1.70;;;5.80;99.90;;;;;;4917900;29;20124;-74
2022/03/30 04:28:20;;;;;;;3.17;1.33;;;5.80;99.90;;;;;;4917787;29;20056;-75
2022/03/30 04:30:45;;;;;;;6.22;1.70;;;5.80;99.90;;;;;;4917577;29;20051;-74
2022/03/30 04:33:11;;;;;;;6.03;1.45;;;5.80;99.90;;;;;;4917550;29;20809;-73
2022/03/30 04:35:37;;;;;;;2.58;1.40;;;5.70;99.90;;;;;;4901608;29;20063;-75
2022/03/30 04:38:03;;;;;;;1.83;1.00;;;5.70;99.90;;;;;;4946050;28;20109;-74
2022/03/30 04:40:29;;;;;;;3.90;1.10;;;5.70;99.90;;;;;;4959873;28;20130;-72
2022/03/30 04:42:55;;;;;;;2.47;1.08;;;5.70;99.90;;;;;;4976985;28;20126;-74
2022/03/30 04:45:22;;;;;;;1.90;1.00;;;5.70;99.90;;;;;;4960101;28;20039;-72
2022/03/30 04:47:48;;;;;;;1.35;0.90;;;5.70;99.90;;;;;;4967141;28;20465;-74
2022/03/30 04:50:14;;;;;;;1.65;0.82;;;5.60;99.90;;;;;;4995892;28;20042;-73
2022/03/30 04:52:41;;;;;;;2.35;1.10;;;5.70;99.90;;;;;;4996059;28;20050;-73
2022/03/30 04:55:08;;;;;;;4.13;1.27;;;5.60;99.90;;;;;;4979022;28;20046;-74
2022/03/30 04:57:34;;;;;;;2.53;1.10;;;5.60;99.90;;;;;;4995890;28;20058;-74
2022/03/30 05:00:00;;;;;;;2.70;1.00;;;5.50;99.90;;;;;;4995752;28;20074;-74
2022/03/30 05:02:26;;;;;;;1.85;1.00;;;5.50;99.90;;;;;;4995631;28;20144;-69
2022/03/30 05:04:52;;;;;;;1.92;1.10;;;5.50;99.90;;;;;;4995619;28;20054;-74
2022/03/30 05:07:18;;;;;;;3.03;1.30;;;5.70;99.90;;;;;;4995953;28;20077;-72
2022/03/30 05:09:45;;;;;;;2.28;1.27;;;5.40;99.90;;;;;;4996018;28;20131;-74
2022/03/30 05:12:11;;;;;;;3.33;1.70;;;5.40;99.90;;;;;;4995810;28;20050;-74
2022/03/30 05:14:37;;;;;;;3.05;1.60;;;5.40;99.90;;;;;;4995600;28;20042;-74
2022/03/30 05:17:02;;;;;;;2.55;1.35;;;5.30;99.90;;;;;;4962460;28;20132;-73
2022/03/30 05:19:28;;;;;;;2.65;1.35;;;5.30;99.90;;;;;;4995064;28;20400;-76
2022/03/30 05:21:54;;;;;;;2.22;1.20;;;5.30;99.90;;;;;;4995409;28;20042;-73
2022/03/30 05:24:19;;;;;;;6.00;1.63;;;5.30;99.90;;;;;;4978344;28;20046;-75
2022/03/30 05:26:45;;;;;;;1.77;1.10;;;5.20;99.90;;;;;;4995643;28;20050;-75
2022/03/30 05:29:11;;;;;;;4.40;1.33;;;5.20;99.90;;;;;;4994137;28;20042;-72
2022/03/30 05:31:37;;;;;;;2.47;1.15;;;5.20;99.90;;;;;;4996541;28;20108;-73
2022/03/30 05:34:02;;;;;;;3.53;1.30;;;5.10;99.90;;;;;;5002039;28;20129;-72
2022/03/30 05:36:29;;;;;;;3.58;1.10;;;5.10;99.90;;;;;;4994544;28;20109;-73
2022/03/30 05:38:54;;;;;;;3.55;1.20;;;5.10;99.90;;;;;;4995017;28;20062;-75
2022/03/30 05:41:20;;;;;;;2.10;1.20;;;5.50;99.90;;;;;;4977536;28;20046;-73
2022/03/30 05:43:46;;;;;;;3.20;1.40;;;5.10;99.90;;;;;;4995274;28;20057;-72
2022/03/30 05:46:12;;;;;;;3.65;1.50;;;5.10;99.90;;;;;;4995084;28;20140;-72
2022/03/30 05:48:38;;;;;;;4.25;1.42;;;5.20;99.90;;;;;;4977333;28;20057;-72
2022/03/30 05:51:04;;;;;;;5.43;1.80;;;5.20;99.90;;;;;;4995021;28;20042;-73
2022/03/30 05:53:29;;;;;;;2.92;1.50;;;5.20;99.90;;;;;;4993497;28;20038;-73
2022/03/30 05:55:55;;;;;;;3.65;1.90;;;5.20;99.90;;;;;;4977396;28;20069;-73
2022/03/30 05:58:21;;;;;;;4.32;1.52;;;5.20;99.90;;;;;;4980615;28;20050;-71
2022/03/30 06:00:48;;;;;;;2.72;1.50;;;5.20;99.90;;;;;;4998887;28;20382;-72
2022/03/30 06:03:14;;;;;;;5.55;1.70;;;5.30;99.90;;;;;;4981396;28;20061;-74
2022/03/30 06:05:40;;;;;;;7.13;1.80;;;5.30;99.90;;;;;;4998927;28;20121;-74
2022/03/30 06:08:07;;;;;;;4.82;1.80;;;5.30;99.90;;;;;;4998790;28;20140;-73
2022/03/30 06:10:33;;;;;;;4.05;1.80;;;5.40;99.90;;;;;;4998072;28;20061;-72
2022/03/30 06:12:59;;;;;;;5.05;2.10;;;5.40;99.90;;;;;;4998521;28;20054;-73
2022/03/30 06:15:25;;;;;;;4.47;2.20;;;5.40;99.90;;;;;;5001675;28;20046;-74
2022/03/30 06:17:51;;;;;;;7.55;2.17;;;5.50;99.90;;;;;;4981832;28;20050;-74
2022/03/30 06:20:17;;;;;;;5.20;2.10;;;5.50;99.90;;;;;;4998550;28;20046;-73
2022/03/30 06:22:44;;;;;;;5.78;2.17;;;5.60;99.90;;;;;;4998046;28;20486;-74
2022/03/30 06:25:10;;;;;;;4.00;1.85;;;5.70;99.90;;;;;;4998632;28;20043;-73
2022/03/30 06:27:37;;;;;;;3.33;1.80;;;5.70;99.90;;;;;;4981017;28;20046;-72
2022/03/30 06:30:04;;;;;;;5.35;1.65;;;5.70;99.90;;;;;;4998471;28;20072;-74
2022/03/30 06:32:30;;;;;;;6.47;1.70;;;5.80;99.90;;;;;;4995564;28;20489;-74
2022/03/30 06:34:58;;;;;;;4.18;2.20;;;5.90;99.90;;;;;;4982454;28;20074;-75
2022/03/30 06:37:24;;;;;;;4.75;1.92;;;6.40;99.90;;;;;;4981313;28;20101;-74
2022/03/30 06:39:50;;;;;;;3.45;1.83;;;6.10;99.90;;;;;;4998131;28;20420;-75
2022/03/30 06:42:19;;;;;;;7.80;2.00;;;6.10;99.90;;;;;;4978211;28;20053;-71
2022/03/30 06:44:45;;;;;;;9.52;2.42;;;6.10;99.90;;;;;;4980329;28;20116;-73
2022/03/30 06:47:11;;;;;;;4.95;1.92;;;6.20;99.90;;;;;;4997197;28;20129;-74
2022/03/30 06:49:40;;;;;;;4.85;1.83;;;6.20;99.90;;;;;;4980269;28;20042;-71
2022/03/30 06:52:06;;;;;;;5.65;1.92;;;6.20;99.90;;;;;;4980697;28;20056;-74
2022/03/30 06:54:34;;;;;;;5.45;2.05;;;6.30;99.90;;;;;;4994527;28;20053;-72
2022/03/30 06:57:00;;;;;;;6.13;2.20;;;6.30;99.90;;;;;;4996449;28;20042;-69
2022/03/30 06:59:27;;;;;;;6.57;2.00;;;6.40;99.90;;;;;;4981011;28;20046;-74
2022/03/30 07:01:55;;;;;;;5.82;2.10;;;6.40;99.90;;;;;;4997816;28;20116;-74
2022/03/30 07:04:21;;;;;;;5.82;2.33;;;6.50;99.90;;;;;;4996596;28;20046;-73
2022/03/30 07:12:15;;;;;;;7.68;3.72;;;6.50;99.90;;;;;;4997833;28;20052;-74
2022/03/30 07:14:41;;;;;;;6.32;2.75;;;6.60;99.90;;;;;;4997834;28;20046;-74
2022/03/30 07:17:06;;;;;;;9.38;3.70;;;6.60;99.90;;;;;;4980375;28;20078;-73
2022/03/30 07:19:32;;;;;;;6.63;2.20;;;6.60;99.90;;;;;;4996899;28;20065;-74
2022/03/30 07:21:58;;;;;;;11.38;2.80;;;6.70;99.90;;;;;;5000401;28;20193;-77
2022/03/30 07:24:23;;;;;;;9.77;4.25;;;6.70;99.90;;;;;;4999858;28;20050;-74
2022/03/30 07:26:49;;;;;;;8.25;2.22;;;6.70;99.90;;;;;;4997438;28;20046;-73
2022/03/30 07:29:14;;;;;;;5.47;2.60;;;6.70;99.90;;;;;;4997060;28;20105;-73
2022/03/30 07:31:40;;;;;;;10.88;7.65;;;6.90;99.90;;;;;;4980125;28;20124;-74
2022/03/30 07:34:06;;;;;;;6.68;2.25;;;6.70;99.90;;;;;;4986410;28;20073;-72
2022/03/30 07:36:31;;;;;;;6.90;3.28;;;6.70;99.90;;;;;;4996856;28;20112;-72
2022/03/30 07:38:57;;;;;;;8.43;3.78;;;6.70;99.90;;;;;;4996869;28;20425;-74
2022/03/30 07:41:22;;;;;;;7.05;2.55;;;6.80;99.90;;;;;;4997121;28;20108;-75
2022/03/30 07:43:48;;;;;;;7.40;4.35;;;7.00;99.90;;;;;;4997535;28;20367;-74
2022/03/30 07:46:14;;;;;;;8.93;4.68;;;7.10;99.90;;;;;;4979839;28;20513;-72
2022/03/30 07:48:40;;;;;;;8.10;4.35;;;7.00;99.90;;;;;;4995507;28;20042;-73
2022/03/30 07:51:06;;;;;;;8.32;4.95;;;7.00;99.90;;;;;;4995995;28;20108;-72
2022/03/30 07:53:32;;;;;;;6.57;3.75;;;7.00;99.90;;;;;;4979443;28;20133;-73
2022/03/30 07:55:57;;;;;;;4.35;2.63;;;7.20;99.90;;;;;;4979848;28;20038;-73
2022/03/30 07:58:25;;;;;;;10.55;6.25;;;7.00;99.90;;;;;;4996619;28;20034;-74
2022/03/30 08:00:51;;;;;;;7.43;3.22;;;7.10;99.90;;;;;;4996254;28;20425;-74
2022/03/30 08:03:17;;;;;;;9.45;4.72;;;7.00;99.90;;;;;;4997497;28;20122;-73
2022/03/30 08:05:43;;;;;;;9.35;3.40;;;7.20;99.90;;;;;;4979208;28;20045;-73
2022/03/30 08:08:08;;;;;;;6.03;3.30;;;7.20;99.90;;;;;;4979155;28;20042;-73
2022/03/30 08:10:35;;;;;;;8.50;4.28;;;8.10;99.90;;;;;;4979226;28;20049;-73
2022/03/30 08:13:02;;;;;;;10.43;4.40;;;7.50;99.90;;;;;;4996428;28;20116;-74
2022/03/30 08:15:28;;;;;;;7.18;4.03;;;7.50;99.90;;;;;;4979433;28;20050;-73
2022/03/30 08:17:54;;;;;;;6.22;3.38;;;7.40;99.90;;;;;;4960252;28;20058;-74
2022/03/30 08:23:06;;;;;;;6.25;3.63;;;7.60;99.90;;;;;;4996458;28;20121;-74
2022/03/30 08:25:32;;;;;;;4.95;2.97;;;7.50;99.90;;;;;;4980783;28;20074;-71
2022/03/30 08:27:57;;;;;;;8.25;2.40;;;7.50;99.90;;;;;;4996549;28;20399;-74
2022/03/30 08:30:23;;;;;;;10.18;2.22;;;7.40;99.90;;;;;;4996484;28;20093;-74
2022/03/30 08:32:49;;;;;;;7.50;1.83;;;7.40;99.90;;;;;;4996419;28;20045;-72
2022/03/30 08:35:15;;;;;;;5.75;1.52;;;7.30;99.90;;;;;;4996219;28;20141;-73
2022/03/30 08:37:41;;;;;;;10.85;1.65;;;7.20;99.90;;;;;;4995491;28;20120;-73
2022/03/30 08:40:07;;;;;;;6.38;1.60;;;7.20;99.90;;;;;;4996273;28;20052;-74
2022/03/30 08:42:34;;;;;;;6.70;2.15;;;7.10;99.90;;;;;;4996448;28;20129;-73
2022/03/30 08:45:05;;;;;;;7.40;2.13;;;7.10;99.90;;;;;;4978957;28;20081;-72
2022/03/30 08:47:32;;;;;;;5.32;1.70;;;7.00;99.90;;;;;;4978692;28;20129;-74
2022/03/30 08:49:58;;;;;;;6.85;1.50;;;6.80;99.90;;;;;;4995543;28;20076;-74
2022/03/30 08:52:24;;;;;;;7.95;1.58;;;6.80;99.90;;;;;;4996318;28;20525;-74
2022/03/30 08:54:59;;;;;;;4.55;1.45;;;7.40;99.90;;;;;;4996213;28;20046;-71
2022/03/30 08:57:28;;;;;;;5.75;1.80;;;6.80;99.90;;;;;;4995887;28;20094;-75
2022/03/30 09:00:19;;;;;;;9.50;2.80;;;6.90;99.90;;;;;;4962639;28;20046;-74
2022/03/30 09:02:59;;;;;;;9.30;1.83;;;7.00;99.90;;;;;;4996148;28;20050;-74
2022/03/30 09:05:26;;;;;;;6.32;2.10;;;7.10;99.90;;;;;;4994710;28;20079;-72
2022/03/30 09:08:12;;;;;;;6.20;2.30;;;7.30;99.90;;;;;;4994978;28;20054;-73
2022/03/30 09:10:38;;;;;;;3.10;1.10;;;7.20;99.90;;;;;;4995630;28;20065;-72
2022/03/30 09:13:05;;;;;;;3.40;1.67;;;7.70;99.90;;;;;;4946207;28;20150;-72
2022/03/30 09:15:32;;;;;;;6.75;2.03;;;7.50;99.90;;;;;;4995474;28;20038;-74
2022/03/30 09:18:02;;;;;;;4.47;1.52;;;7.40;99.90;;;;;;4978477;28;20050;-71
2022/03/30 09:20:28;;;;;;;7.25;1.80;;;7.40;99.90;;;;;;4962929;28;20052;-74
2022/03/30 09:22:57;;;;;;;5.35;1.50;;;7.50;99.90;;;;;;4995597;28;20042;-73
2022/03/30 09:25:27;;;;;;;7.35;1.58;;;7.50;99.90;;;;;;4962622;28;20410;-73
2022/03/30 09:27:57;;;;;;;6.18;1.50;;;7.50;99.90;;;;;;4995381;28;20050;-73
2022/03/30 09:30:24;;;;;;;6.05;1.80;;;7.60;99.90;;;;;;4995544;28;20120;-72
2022/03/30 09:32:53;;;;;;;6.85;3.35;;;7.60;99.90;;;;;;4978052;28;20054;-71
2022/03/30 09:35:27;;;;;;;8.20;2.15;;;7.60;99.90;;;;;;4995201;28;20058;-73
2022/03/30 09:38:08;;;;;;;6.50;1.52;;;7.60;99.90;;;;;;4978514;28;20073;-73
2022/03/30 09:40:35;;;;;;;6.63;1.63;;;7.70;99.90;;;;;;4995594;28;20039;-72
2022/03/30 09:43:17;;;;;;;4.70;1.73;;;8.00;99.90;;;;;;4978622;28;20054;-72
2022/03/30 09:45:43;;;;;;;3.08;1.60;;;7.90;99.90;;;;;;4979063;28;20050;-72
2022/03/30 09:48:18;;;;;;;5.38;1.95;;;8.00;99.90;;;;;;4974895;28;20073;-72
2022/03/30 09:50:50;;;;;;;6.45;2.45;;;7.90;99.90;;;;;;4995459;28;20042;-73
2022/03/30 09:53:17;;;;;;;8.27;1.67;;;8.10;99.90;;;;;;4994350;28;20073;-72
2022/03/30 09:55:58;;;;;;;6.15;1.85;;;8.10;99.90;;;;;;4995335;28;20034;-75
2022/03/30 09:58:26;;;;;;;6.82;1.48;;;8.10;99.90;;;;;;4995076;28;20043;-73
2022/03/30 10:01:08;;;;;;;4.53;1.67;;;8.20;99.90;;;;;;4977913;28;20046;-75
2022/03/30 10:03:44;;;;;;;9.10;1.90;;;8.10;99.90;;;;;;4977843;28;20042;-73
2022/03/30 10:06:12;;;;;;;8.20;1.92;;;8.00;99.90;;;;;;4995142;28;20056;-73
2022/03/30 10:08:43;;;;;;;6.00;1.70;;;7.90;99.90;;;;;;4993674;28;20042;-74
2022/03/30 10:11:10;;;;;;;7.90;4.45;;;8.00;99.90;;;;;;4995233;28;20059;-72
2022/03/30 10:13:39;;;;;;;5.47;1.88;;;8.30;99.90;;;;;;4977866;28;20100;-73
2022/03/30 10:16:06;;;;;;;9.45;2.20;;;8.10;99.90;;;;;;4995163;28;20057;-73
2022/03/30 10:18:40;;;;;;;5.75;1.95;;;7.90;99.90;;;;;;4994459;28;20121;-74
2022/03/30 10:21:17;;;;;;;5.45;2.05;;;8.00;99.90;;;;;;4994870;28;20054;-75
2022/03/30 10:24:09;;;;;;;5.10;1.90;;;8.10;99.90;;;;;;4977788;28;20446;-73
2022/03/30 10:26:52;;;;;;;6.78;2.10;;;8.30;99.90;;;;;;4978111;28;20129;-72
2022/03/30 10:29:22;;;;;;;5.60;1.90;;;8.40;99.90;;;;;;4995083;28;20054;-72
2022/03/30 10:32:25;;;;;;;4.97;2.03;;;8.40;99.90;;;;;;4993832;28;20049;-72
2022/03/30 10:34:53;;;;;;;5.10;1.87;;;8.60;99.90;;;;;;4993825;28;20129;-72
2022/03/30 10:37:27;;;;;;;7.40;1.88;;;8.60;99.90;;;;;;4994565;28;20378;-73
2022/03/30 10:40:18;;;;;;;;;;;8.70;99.90;;;;;;4995280;28;20043;-73
2022/03/30 10:43:10;;;;;;;7.90;2.92;;;8.70;99.90;;;;;;4973217;28;20256;-73
2022/03/30 10:46:03;;;;;;;8.18;4.55;;;8.70;99.90;;;;;;4997221;28;20085;-73
2022/03/30 10:48:30;;;;;;;9.80;2.92;;;8.50;99.90;;;;;;4981090;28;20458;-74
2022/03/30 10:50:59;;;;;;;5.22;2.75;;;8.50;99.90;;;;;;4998399;28;20056;-72
2022/03/30 10:53:31;;;;;;;15.90;9.95;;;8.70;99.90;;;;;;4981026;28;20046;-73
2022/03/30 10:56:09;;;;;;;7.03;2.50;;;8.60;99.90;;;;;;4998334;28;20458;-72
2022/03/30 10:58:56;;;;;;;20.55;12.30;;;8.60;99.90;;;;;;4980639;28;20054;-72
2022/03/30 11:01:26;;;;;;;19.98;8.07;;;8.80;99.90;;;;;;4998168;28;20360;-72
2022/03/30 11:04:05;;;;;;;18.83;9.95;;;8.70;99.90;;;;;;4998073;28;20081;-73
2022/03/30 11:06:38;;;;;;;8.40;3.30;;;8.80;99.90;;;;;;4980232;28;20129;-72
2022/03/30 11:09:32;;;;;;;8.57;2.80;;;8.60;99.90;;;;;;4976606;28;20447;-71
2022/03/30 11:11:59;;;;;;;5.90;2.25;;;8.60;99.90;;;;;;4992892;28;20112;-72
2022/03/30 11:14:36;;;;;;;5.15;2.85;;;8.90;99.90;;;;;;4997159;28;20125;-72
2022/03/30 11:17:13;;;;;;;7.22;1.90;;;8.50;99.90;;;;;;4980717;28;20358;-73
2022/03/30 11:19:47;;;;;;;4.78;2.30;;;8.30;99.90;;;;;;4980076;28;20053;-73
2022/03/30 11:22:22;;;;;;;6.72;1.95;;;8.30;99.90;;;;;;4998281;28;20370;-72
2022/03/30 11:25:18;;;;;;;4.85;1.92;;;8.20;99.90;;;;;;4997217;28;20047;-72
2022/03/30 11:27:47;;;;;;;6.10;2.00;;;8.10;99.90;;;;;;4997402;28;20050;-73
2022/03/30 11:30:18;;;;;;;5.53;1.90;;;8.10;99.90;;;;;;4997367;28;20497;-72
2022/03/30 11:33:01;;;;;;;7.50;2.17;;;8.50;99.90;;;;;;4996406;28;20053;-71
2022/03/30 11:36:26;;;;;;;4.53;1.80;;;7.80;99.90;;;;;;4997227;28;20475;-71
2022/03/30 11:39:10;;;;;;;6.88;1.80;;;7.90;99.90;;;;;;4982605;28;20088;-74
2022/03/30 11:41:36;;;;;;;7.20;1.90;;;8.00;99.90;;;;;;4980299;28;20058;-72
2022/03/30 11:46:51;;;;;;;7.40;1.50;;;8.20;99.90;;;;;;4979953;28;20046;-72
2022/03/30 11:49:24;;;;;;;4.35;1.60;;;8.30;99.90;;;;;;4979931;28;20367;-73
2022/03/30 11:51:52;;;;;;;5.85;1.45;;;8.40;99.90;;;;;;4980117;28;20045;-73
2022/03/30 11:54:25;;;;;;;5.50;1.48;;;8.60;99.90;;;;;;4979338;28;20152;-73
2022/03/30 11:56:58;;;;;;;6.85;2.78;;;8.80;99.90;;;;;;4977363;28;20051;-74
2022/03/30 11:59:39;;;;;;;5.35;1.98;;;9.00;99.90;;;;;;4979680;28;20042;-72
2022/03/30 12:02:07;;;;;;;6.97;2.00;;;9.30;99.90;;;;;;4979313;28;20050;-73
2022/03/30 12:04:33;;;;;;;6.35;1.75;;;8.90;99.90;;;;;;4996849;28;20064;-73
2022/03/30 12:06:59;;;;;;;6.65;1.17;;;9.20;99.90;;;;;;4963761;28;20500;-72
2022/03/30 12:09:24;;;;;;;5.60;1.70;;;9.20;99.90;;;;;;4997508;28;20046;-71
2022/03/30 12:11:52;;;;;;;4.72;1.60;;;9.20;99.90;;;;;;4977280;28;20467;-73
2022/03/30 12:14:30;;;;;;;8.30;1.92;;;9.10;99.90;;;;;;4979239;28;20066;-74
2022/03/30 12:16:58;;;;;;;5.53;2.67;;;9.10;99.90;;;;;;4980094;28;20477;-71
2022/03/30 12:19:27;;;;;;;7.28;2.55;;;8.90;99.90;;;;;;4996857;28;20046;-71
2022/03/30 12:22:32;;;;;;;4.32;1.70;;;8.70;99.90;;;;;;4996628;28;20426;-72
2022/03/30 12:24:58;;;;;;;7.65;3.97;;;8.80;99.90;;;;;;4979371;28;20053;-72
2022/03/30 12:27:25;;;;;;;5.63;1.40;;;8.70;99.90;;;;;;4996601;28;20065;-71
2022/03/30 12:29:57;;;;;;;5.43;1.40;;;8.90;99.90;;;;;;4979219;28;20046;-71
2022/03/30 12:32:34;;;;;;;7.07;3.65;;;9.10;99.90;;;;;;4975089;28;20077;-76
2022/03/30 12:35:16;;;;;;;6.50;1.60;;;9.50;99.90;;;;;;5001670;28;20124;-75
2022/03/30 12:37:46;;;;;;;6.63;3.38;;;9.50;99.90;;;;;;4995899;28;20054;-73
2022/03/30 12:40:20;;;;;;;3.72;1.23;;;9.90;99.90;;;;;;5001765;28;20053;-75
2022/03/30 12:43:00;;;;;;;3.50;1.70;;;9.60;99.90;;;;;;4998112;28;20067;-75
2022/03/30 12:45:26;;;;;;;2.78;1.30;;;9.60;99.90;;;;;;4997893;28;20104;-76
2022/03/30 12:47:59;;;;;;;3.60;1.30;;;9.60;99.90;;;;;;4998280;28;20034;-75
2022/03/30 12:50:33;;;;;;;5.20;1.83;;;9.90;99.90;;;;;;5014845;28;20369;-76
2022/03/30 12:53:17;;;;;;;11.73;2.65;;;9.90;99.90;;;;;;4997868;28;20335;-75
2022/03/30 12:55:49;;;;;;;5.70;1.50;;;10.00;99.90;;;;;;4980642;28;20054;-75
2022/03/30 12:58:22;;;;;;;5.68;1.60;;;10.00;99.90;;;;;;4981409;28;20041;-77
2022/03/30 13:00:55;;;;;;;5.22;1.25;;;10.00;99.90;;;;;;5014866;28;20465;-74
2022/03/30 13:03:31;;;;;;;5.75;1.70;;;10.20;99.90;;;;;;5001688;28;20039;-74
2022/03/30 13:06:09;;;;;;;3.58;1.17;;;9.90;99.60;;;;;;4977890;28;20101;-76
2022/03/30 13:08:37;;;;;;;8.00;2.85;;;9.90;99.90;;;;;;4995700;28;20038;-75
2022/03/30 13:11:13;;;;;;;3.83;1.50;;;9.80;99.40;;;;;;4995299;28;20042;-77
2022/03/30 13:13:43;;;;;;;3.03;1.10;;;9.70;99.60;;;;;;4995066;28;20046;-74